sensor_id;sensor_type;location;lat;lon;timestamp;P1;durP1;ratioP1;P2;durP2;ratioP2
70216;SDS011;57608;0.000;0.000;2022-11-14T00:01:58;0.95;;;0.35;;
70216;SDS011;57608;0.000;0.000;2022-11-14T00:04:23;0.30;;;0.10;;
70216;SDS011;57608;0.000;0.000;2022-11-14T00:06:49;0.15;;;0.10;;
70216;SDS011;57608;0.000;0.000;2022-11-14T00:09:14;0.38;;;0.20;;
70216;SDS011;57608;0.000;0.000;2022-11-14T00:11:40;0.50;;;0.20;;
70216;SDS011;57608;0.000;0.000;2022-11-14T00:14:05;0.60;;;0.20;;
70216;SDS011;57608;0.000;0.000;2022-11-14T00:16:30;0.20;;;0.10;;
70216;SDS011;57608;0.000;0.000;2022-11-14T00:18:56;0.43;;;0.20;;
70216;SDS011;57608;0.000;0.000;2022-11-14T00:21:21;0.47;;;0.20;;
70216;SDS011;57608;0.000;0.000;2022-11-14T00:23:47;0.30;;;0.13;;
70216;SDS011;57608;0.000;0.000;2022-11-14T00:26:12;0.47;;;0.20;;
70216;SDS011;57608;0.000;0.000;2022-11-14T00:28:38;1.83;;;0.22;;
70216;SDS011;57608;0.000;0.000;2022-11-14T00:31:03;0.28;;;0.17;;
70216;SDS011;57608;0.000;0.000;2022-11-14T00:33:29;0.90;;;0.25;;
70216;SDS011;57608;0.000;0.000;2022-11-14T00:35:54;0.77;;;0.30;;
70216;SDS011;57608;0.000;0.000;2022-11-14T00:38:21;0.52;;;0.20;;
70216;SDS011;57608;0.000;0.000;2022-11-14T00:40:47;0.30;;;0.10;;
70216;SDS011;57608;0.000;0.000;2022-11-14T00:43:13;0.60;;;0.20;;
70216;SDS011;57608;0.000;0.000;2022-11-14T00:45:38;0.28;;;0.10;;
70216;SDS011;57608;0.000;0.000;2022-11-14T00:48:04;0.70;;;0.10;;
70216;SDS011;57608;0.000;0.000;2022-11-14T00:50:29;0.35;;;0.10;;
70216;SDS011;57608;0.000;0.000;2022-11-14T00:52:55;0.10;;;0.10;;
70216;SDS011;57608;0.000;0.000;2022-11-14T00:55:20;3.60;;;0.40;;
70216;SDS011;57608;0.000;0.000;2022-11-14T00:57:45;0.17;;;0.10;;
70216;SDS011;57608;0.000;0.000;2022-11-14T01:00:11;0.32;;;0.17;;
70216;SDS011;57608;0.000;0.000;2022-11-14T01:02:38;0.25;;;0.10;;
70216;SDS011;57608;0.000;0.000;2022-11-14T01:05:04;0.63;;;0.10;;
70216;SDS011;57608;0.000;0.000;2022-11-14T01:07:30;2.22;;;0.30;;
70216;SDS011;57608;0.000;0.000;2022-11-14T01:09:55;0.57;;;0.10;;
70216;SDS011;57608;0.000;0.000;2022-11-14T01:12:21;0.50;;;0.20;;
70216;SDS011;57608;0.000;0.000;2022-11-14T01:14:46;0.88;;;0.20;;
70216;SDS011;57608;0.000;0.000;2022-11-14T01:17:12;0.40;;;0.10;;
70216;SDS011;57608;0.000;0.000;2022-11-14T01:19:37;0.85;;;0.10;;
70216;SDS011;57608;0.000;0.000;2022-11-14T01:22:02;0.52;;;0.30;;
70216;SDS011;57608;0.000;0.000;2022-11-14T01:24:28;0.35;;;0.20;;
70216;SDS011;57608;0.000;0.000;2022-11-14T01:26:55;0.43;;;0.13;;
70216;SDS011;57608;0.000;0.000;2022-11-14T01:29:21;0.22;;;0.10;;
70216;SDS011;57608;0.000;0.000;2022-11-14T01:31:46;0.68;;;0.15;;
70216;SDS011;57608;0.000;0.000;2022-11-14T01:34:12;0.75;;;0.15;;
70216;SDS011;57608;0.000;0.000;2022-11-14T01:36:37;0.70;;;0.20;;
70216;SDS011;57608;0.000;0.000;2022-11-14T01:39:02;1.00;;;0.20;;
70216;SDS011;57608;0.000;0.000;2022-11-14T01:41:28;2.08;;;0.15;;
70216;SDS011;57608;0.000;0.000;2022-11-14T01:43:53;0.82;;;0.20;;
70216;SDS011;57608;0.000;0.000;2022-11-14T01:46:23;0.57;;;0.15;;
70216;SDS011;57608;0.000;0.000;2022-11-14T01:48:54;0.63;;;0.10;;
70216;SDS011;57608;0.000;0.000;2022-11-14T01:53:57;0.90;;;0.20;;
70216;SDS011;57608;0.000;0.000;2022-11-14T01:56:27;0.68;;;0.20;;
70216;SDS011;57608;0.000;0.000;2022-11-14T01:58:58;0.38;;;0.10;;
70216;SDS011;57608;0.000;0.000;2022-11-14T02:01:28;0.30;;;0.10;;
70216;SDS011;57608;0.000;0.000;2022-11-14T02:03:56;0.60;;;0.10;;
70216;SDS011;57608;0.000;0.000;2022-11-14T02:06:26;0.52;;;0.10;;
70216;SDS011;57608;0.000;0.000;2022-11-14T02:08:53;0.20;;;0.10;;
70216;SDS011;57608;0.000;0.000;2022-11-14T02:11:20;0.40;;;0.20;;
70216;SDS011;57608;0.000;0.000;2022-11-14T02:13:46;0.13;;;0.10;;
70216;SDS011;57608;0.000;0.000;2022-11-14T02:16:14;0.10;;;0.05;;
70216;SDS011;57608;0.000;0.000;2022-11-14T02:18:39;0.22;;;0.10;;
70216;SDS011;57608;0.000;0.000;2022-11-14T02:21:05;0.65;;;0.17;;
70216;SDS011;57608;0.000;0.000;2022-11-14T02:23:31;0.28;;;0.10;;
70216;SDS011;57608;0.000;0.000;2022-11-14T02:25:57;1.60;;;0.10;;
70216;SDS011;57608;0.000;0.000;2022-11-14T02:28:23;0.95;;;0.30;;
70216;SDS011;57608;0.000;0.000;2022-11-14T02:30:49;1.70;;;0.20;;
70216;SDS011;57608;0.000;0.000;2022-11-14T02:33:15;0.40;;;0.10;;
70216;SDS011;57608;0.000;0.000;2022-11-14T02:35:41;1.05;;;0.30;;
70216;SDS011;57608;0.000;0.000;2022-11-14T02:38:06;1.00;;;0.20;;
70216;SDS011;57608;0.000;0.000;2022-11-14T02:40:32;2.10;;;0.30;;
70216;SDS011;57608;0.000;0.000;2022-11-14T02:42:58;0.63;;;0.15;;
70216;SDS011;57608;0.000;0.000;2022-11-14T02:45:23;1.75;;;0.28;;
70216;SDS011;57608;0.000;0.000;2022-11-14T02:47:49;0.55;;;0.40;;
70216;SDS011;57608;0.000;0.000;2022-11-14T02:50:15;1.00;;;0.22;;
70216;SDS011;57608;0.000;0.000;2022-11-14T02:52:41;0.60;;;0.20;;
70216;SDS011;57608;0.000;0.000;2022-11-14T02:55:06;1.92;;;0.30;;
70216;SDS011;57608;0.000;0.000;2022-11-14T02:57:32;1.27;;;0.20;;
70216;SDS011;57608;0.000;0.000;2022-11-14T02:59:57;0.98;;;0.30;;
70216;SDS011;57608;0.000;0.000;2022-11-14T03:02:23;1.02;;;0.30;;
70216;SDS011;57608;0.000;0.000;2022-11-14T03:04:48;0.88;;;0.28;;
70216;SDS011;57608;0.000;0.000;2022-11-14T03:07:14;0.75;;;0.20;;
70216;SDS011;57608;0.000;0.000;2022-11-14T03:09:39;1.15;;;0.30;;
70216;SDS011;57608;0.000;0.000;2022-11-14T03:12:05;1.13;;;0.40;;
70216;SDS011;57608;0.000;0.000;2022-11-14T03:14:30;0.73;;;0.20;;
70216;SDS011;57608;0.000;0.000;2022-11-14T03:16:56;1.00;;;0.30;;
70216;SDS011;57608;0.000;0.000;2022-11-14T03:19:22;0.88;;;0.40;;
70216;SDS011;57608;0.000;0.000;2022-11-14T03:21:47;2.65;;;0.40;;
70216;SDS011;57608;0.000;0.000;2022-11-14T03:24:15;0.90;;;0.25;;
70216;SDS011;57608;0.000;0.000;2022-11-14T03:26:40;0.82;;;0.20;;
70216;SDS011;57608;0.000;0.000;2022-11-14T03:29:05;1.38;;;0.32;;
70216;SDS011;57608;0.000;0.000;2022-11-14T03:31:31;1.13;;;0.30;;
70216;SDS011;57608;0.000;0.000;2022-11-14T03:33:56;0.82;;;0.20;;
70216;SDS011;57608;0.000;0.000;2022-11-14T03:36:22;1.10;;;0.30;;
70216;SDS011;57608;0.000;0.000;2022-11-14T03:38:47;1.10;;;0.20;;
70216;SDS011;57608;0.000;0.000;2022-11-14T03:41:13;1.27;;;0.40;;
70216;SDS011;57608;0.000;0.000;2022-11-14T03:43:38;1.92;;;0.40;;
70216;SDS011;57608;0.000;0.000;2022-11-14T03:46:03;1.42;;;0.40;;
70216;SDS011;57608;0.000;0.000;2022-11-14T03:48:29;2.08;;;0.35;;
70216;SDS011;57608;0.000;0.000;2022-11-14T03:50:55;1.58;;;0.30;;
70216;SDS011;57608;0.000;0.000;2022-11-14T03:53:21;1.15;;;0.35;;
70216;SDS011;57608;0.000;0.000;2022-11-14T03:55:46;1.45;;;0.22;;
70216;SDS011;57608;0.000;0.000;2022-11-14T03:58:12;1.13;;;0.22;;
70216;SDS011;57608;0.000;0.000;2022-11-14T04:00:37;1.23;;;0.28;;
70216;SDS011;57608;0.000;0.000;2022-11-14T04:03:03;1.50;;;0.30;;
70216;SDS011;57608;0.000;0.000;2022-11-14T04:05:28;1.92;;;0.38;;
70216;SDS011;57608;0.000;0.000;2022-11-14T04:07:54;1.67;;;0.40;;
70216;SDS011;57608;0.000;0.000;2022-11-14T04:10:19;6.65;;;4.07;;
70216;SDS011;57608;0.000;0.000;2022-11-14T04:12:49;12.52;;;9.95;;
70216;SDS011;57608;0.000;0.000;2022-11-14T04:15:15;7.07;;;4.43;;
70216;SDS011;57608;0.000;0.000;2022-11-14T04:17:41;4.65;;;3.35;;
70216;SDS011;57608;0.000;0.000;2022-11-14T04:20:07;4.10;;;2.58;;
70216;SDS011;57608;0.000;0.000;2022-11-14T04:22:33;3.75;;;1.63;;
70216;SDS011;57608;0.000;0.000;2022-11-14T04:24:59;11.32;;;8.77;;
70216;SDS011;57608;0.000;0.000;2022-11-14T04:27:24;8.57;;;6.00;;
70216;SDS011;57608;0.000;0.000;2022-11-14T04:29:49;5.30;;;2.60;;
70216;SDS011;57608;0.000;0.000;2022-11-14T04:32:15;4.15;;;2.58;;
70216;SDS011;57608;0.000;0.000;2022-11-14T04:34:40;14.77;;;12.07;;
70216;SDS011;57608;0.000;0.000;2022-11-14T04:37:06;4.32;;;2.85;;
70216;SDS011;57608;0.000;0.000;2022-11-14T04:39:31;10.50;;;8.32;;
70216;SDS011;57608;0.000;0.000;2022-11-14T04:41:57;13.43;;;11.18;;
70216;SDS011;57608;0.000;0.000;2022-11-14T04:44:22;6.10;;;3.97;;
70216;SDS011;57608;0.000;0.000;2022-11-14T04:46:47;4.32;;;2.83;;
70216;SDS011;57608;0.000;0.000;2022-11-14T04:49:13;4.80;;;2.30;;
70216;SDS011;57608;0.000;0.000;2022-11-14T04:51:38;3.55;;;1.70;;
70216;SDS011;57608;0.000;0.000;2022-11-14T04:54:04;7.15;;;5.38;;
70216;SDS011;57608;0.000;0.000;2022-11-14T04:56:29;9.57;;;7.65;;
70216;SDS011;57608;0.000;0.000;2022-11-14T04:58:55;8.82;;;4.32;;
70216;SDS011;57608;0.000;0.000;2022-11-14T05:01:20;4.53;;;2.20;;
70216;SDS011;57608;0.000;0.000;2022-11-14T05:03:46;3.63;;;2.17;;
70216;SDS011;57608;0.000;0.000;2022-11-14T05:06:11;11.50;;;9.32;;
70216;SDS011;57608;0.000;0.000;2022-11-14T05:08:37;6.63;;;5.82;;
70216;SDS011;57608;0.000;0.000;2022-11-14T05:11:03;4.18;;;2.92;;
70216;SDS011;57608;0.000;0.000;2022-11-14T05:13:28;3.22;;;2.00;;
70216;SDS011;57608;0.000;0.000;2022-11-14T05:15:57;3.53;;;1.63;;
70216;SDS011;57608;0.000;0.000;2022-11-14T05:18:24;6.03;;;5.32;;
70216;SDS011;57608;0.000;0.000;2022-11-14T05:20:49;9.10;;;7.13;;
70216;SDS011;57608;0.000;0.000;2022-11-14T05:23:19;7.93;;;3.85;;
70216;SDS011;57608;0.000;0.000;2022-11-14T05:25:46;3.72;;;2.47;;
70216;SDS011;57608;0.000;0.000;2022-11-14T05:28:11;3.42;;;1.85;;
70216;SDS011;57608;0.000;0.000;2022-11-14T05:30:37;9.40;;;5.68;;
70216;SDS011;57608;0.000;0.000;2022-11-14T05:33:03;15.35;;;12.07;;
70216;SDS011;57608;0.000;0.000;2022-11-14T05:35:28;8.57;;;5.45;;
70216;SDS011;57608;0.000;0.000;2022-11-14T05:37:54;3.72;;;3.05;;
70216;SDS011;57608;0.000;0.000;2022-11-14T05:40:19;4.10;;;2.60;;
70216;SDS011;57608;0.000;0.000;2022-11-14T05:42:44;5.88;;;2.20;;
70216;SDS011;57608;0.000;0.000;2022-11-14T05:45:10;5.45;;;1.50;;
70216;SDS011;57608;0.000;0.000;2022-11-14T05:47:35;3.15;;;1.55;;
70216;SDS011;57608;0.000;0.000;2022-11-14T05:50:01;3.20;;;1.15;;
70216;SDS011;57608;0.000;0.000;2022-11-14T05:52:27;3.35;;;1.38;;
70216;SDS011;57608;0.000;0.000;2022-11-14T05:54:53;4.47;;;1.20;;
70216;SDS011;57608;0.000;0.000;2022-11-14T05:57:18;3.55;;;1.20;;
70216;SDS011;57608;0.000;0.000;2022-11-14T05:59:43;3.20;;;1.17;;
70216;SDS011;57608;0.000;0.000;2022-11-14T06:02:09;1.50;;;0.80;;
70216;SDS011;57608;0.000;0.000;2022-11-14T06:04:34;3.05;;;1.00;;
70216;SDS011;57608;0.000;0.000;2022-11-14T06:07:00;3.22;;;1.10;;
70216;SDS011;57608;0.000;0.000;2022-11-14T06:09:25;2.42;;;0.90;;
70216;SDS011;57608;0.000;0.000;2022-11-14T06:11:51;2.40;;;0.90;;
70216;SDS011;57608;0.000;0.000;2022-11-14T06:14:16;3.35;;;1.00;;
70216;SDS011;57608;0.000;0.000;2022-11-14T06:16:42;3.75;;;0.95;;
70216;SDS011;57608;0.000;0.000;2022-11-14T06:19:07;7.05;;;1.25;;
70216;SDS011;57608;0.000;0.000;2022-11-14T06:21:32;2.28;;;1.00;;
70216;SDS011;57608;0.000;0.000;2022-11-14T06:23:58;3.53;;;0.90;;
70216;SDS011;57608;0.000;0.000;2022-11-14T06:26:24;4.93;;;1.00;;
70216;SDS011;57608;0.000;0.000;2022-11-14T06:28:54;2.75;;;1.10;;
70216;SDS011;57608;0.000;0.000;2022-11-14T06:31:19;3.13;;;1.10;;
70216;SDS011;57608;0.000;0.000;2022-11-14T06:33:45;2.50;;;1.02;;
70216;SDS011;57608;0.000;0.000;2022-11-14T06:36:11;3.60;;;0.88;;
70216;SDS011;57608;0.000;0.000;2022-11-14T06:38:38;5.43;;;1.27;;
70216;SDS011;57608;0.000;0.000;2022-11-14T06:41:08;5.20;;;1.10;;
70216;SDS011;57608;0.000;0.000;2022-11-14T06:43:36;7.97;;;2.40;;
70216;SDS011;57608;0.000;0.000;2022-11-14T06:46:03;5.80;;;2.05;;
70216;SDS011;57608;0.000;0.000;2022-11-14T06:48:29;6.22;;;1.58;;
70216;SDS011;57608;0.000;0.000;2022-11-14T06:50:55;5.72;;;1.88;;
70216;SDS011;57608;0.000;0.000;2022-11-14T06:53:22;4.88;;;1.83;;
70216;SDS011;57608;0.000;0.000;2022-11-14T06:55:53;4.00;;;1.10;;
70216;SDS011;57608;0.000;0.000;2022-11-14T06:58:19;3.40;;;1.10;;
70216;SDS011;57608;0.000;0.000;2022-11-14T07:00:45;5.68;;;1.30;;
70216;SDS011;57608;0.000;0.000;2022-11-14T07:03:10;4.88;;;1.38;;
70216;SDS011;57608;0.000;0.000;2022-11-14T07:05:35;2.95;;;0.95;;
70216;SDS011;57608;0.000;0.000;2022-11-14T07:08:01;7.75;;;2.17;;
70216;SDS011;57608;0.000;0.000;2022-11-14T07:10:26;10.65;;;5.38;;
70216;SDS011;57608;0.000;0.000;2022-11-14T07:12:52;8.35;;;3.38;;
70216;SDS011;57608;0.000;0.000;2022-11-14T07:15:17;9.00;;;3.65;;
70216;SDS011;57608;0.000;0.000;2022-11-14T07:17:42;8.20;;;3.80;;
70216;SDS011;57608;0.000;0.000;2022-11-14T07:20:08;7.05;;;3.20;;
70216;SDS011;57608;0.000;0.000;2022-11-14T07:22:34;8.85;;;2.72;;
70216;SDS011;57608;0.000;0.000;2022-11-14T07:24:59;7.65;;;2.47;;
70216;SDS011;57608;0.000;0.000;2022-11-14T07:27:25;4.32;;;1.90;;
70216;SDS011;57608;0.000;0.000;2022-11-14T07:29:50;7.65;;;2.05;;
70216;SDS011;57608;0.000;0.000;2022-11-14T07:32:15;6.90;;;1.70;;
70216;SDS011;57608;0.000;0.000;2022-11-14T07:34:41;5.40;;;1.80;;
70216;SDS011;57608;0.000;0.000;2022-11-14T07:37:06;6.60;;;1.73;;
70216;SDS011;57608;0.000;0.000;2022-11-14T07:39:35;5.32;;;1.58;;
70216;SDS011;57608;0.000;0.000;2022-11-14T07:42:03;3.88;;;1.30;;
70216;SDS011;57608;0.000;0.000;2022-11-14T07:44:31;8.68;;;1.85;;
70216;SDS011;57608;0.000;0.000;2022-11-14T07:46:56;4.07;;;1.35;;
70216;SDS011;57608;0.000;0.000;2022-11-14T07:49:22;3.97;;;1.52;;
70216;SDS011;57608;0.000;0.000;2022-11-14T07:51:47;4.55;;;1.30;;
70216;SDS011;57608;0.000;0.000;2022-11-14T07:54:12;6.05;;;1.40;;
70216;SDS011;57608;0.000;0.000;2022-11-14T07:56:38;4.20;;;1.27;;
70216;SDS011;57608;0.000;0.000;2022-11-14T07:59:03;4.25;;;1.25;;
70216;SDS011;57608;0.000;0.000;2022-11-14T08:01:29;4.57;;;1.27;;
70216;SDS011;57608;0.000;0.000;2022-11-14T08:03:54;4.25;;;1.25;;
70216;SDS011;57608;0.000;0.000;2022-11-14T08:06:20;7.00;;;1.35;;
70216;SDS011;57608;0.000;0.000;2022-11-14T08:08:45;3.28;;;1.08;;
70216;SDS011;57608;0.000;0.000;2022-11-14T08:11:11;3.10;;;1.20;;
70216;SDS011;57608;0.000;0.000;2022-11-14T08:13:36;2.63;;;1.20;;
70216;SDS011;57608;0.000;0.000;2022-11-14T08:16:02;3.15;;;0.90;;
70216;SDS011;57608;0.000;0.000;2022-11-14T08:18:32;3.63;;;0.98;;
70216;SDS011;57608;0.000;0.000;2022-11-14T08:20:57;3.08;;;1.00;;
70216;SDS011;57608;0.000;0.000;2022-11-14T08:23:23;4.50;;;1.30;;
70216;SDS011;57608;0.000;0.000;2022-11-14T08:25:48;4.07;;;1.02;;
70216;SDS011;57608;0.000;0.000;2022-11-14T08:28:14;3.83;;;1.30;;
70216;SDS011;57608;0.000;0.000;2022-11-14T08:30:39;5.00;;;1.38;;
70216;SDS011;57608;0.000;0.000;2022-11-14T08:33:05;3.88;;;1.10;;
70216;SDS011;57608;0.000;0.000;2022-11-14T08:35:31;4.60;;;1.02;;
70216;SDS011;57608;0.000;0.000;2022-11-14T08:37:59;3.55;;;0.93;;
70216;SDS011;57608;0.000;0.000;2022-11-14T08:40:25;4.38;;;1.10;;
70216;SDS011;57608;0.000;0.000;2022-11-14T08:42:51;3.95;;;1.00;;
70216;SDS011;57608;0.000;0.000;2022-11-14T08:45:16;3.67;;;1.10;;
70216;SDS011;57608;0.000;0.000;2022-11-14T08:47:42;3.17;;;1.17;;
70216;SDS011;57608;0.000;0.000;2022-11-14T08:50:07;3.78;;;1.30;;
70216;SDS011;57608;0.000;0.000;2022-11-14T08:52:33;4.18;;;1.10;;
70216;SDS011;57608;0.000;0.000;2022-11-14T08:54:58;5.47;;;1.10;;
70216;SDS011;57608;0.000;0.000;2022-11-14T08:57:23;2.60;;;0.75;;
70216;SDS011;57608;0.000;0.000;2022-11-14T08:59:49;3.58;;;1.00;;
70216;SDS011;57608;0.000;0.000;2022-11-14T09:02:14;3.90;;;1.20;;
70216;SDS011;57608;0.000;0.000;2022-11-14T09:04:43;3.38;;;1.15;;
70216;SDS011;57608;0.000;0.000;2022-11-14T09:07:08;2.20;;;1.02;;
70216;SDS011;57608;0.000;0.000;2022-11-14T09:09:34;4.78;;;1.02;;
70216;SDS011;57608;0.000;0.000;2022-11-14T09:11:59;3.25;;;1.08;;
70216;SDS011;57608;0.000;0.000;2022-11-14T09:14:24;3.00;;;1.10;;
70216;SDS011;57608;0.000;0.000;2022-11-14T09:16:50;5.10;;;1.02;;
70216;SDS011;57608;0.000;0.000;2022-11-14T09:19:15;2.53;;;0.85;;
70216;SDS011;57608;0.000;0.000;2022-11-14T09:21:43;4.63;;;1.02;;
70216;SDS011;57608;0.000;0.000;2022-11-14T09:24:09;3.90;;;0.88;;
70216;SDS011;57608;0.000;0.000;2022-11-14T09:26:34;4.20;;;1.17;;
70216;SDS011;57608;0.000;0.000;2022-11-14T09:29:00;3.75;;;1.10;;
70216;SDS011;57608;0.000;0.000;2022-11-14T09:31:26;3.70;;;0.90;;
70216;SDS011;57608;0.000;0.000;2022-11-14T09:33:51;3.00;;;0.90;;
70216;SDS011;57608;0.000;0.000;2022-11-14T09:36:17;4.68;;;1.08;;
70216;SDS011;57608;0.000;0.000;2022-11-14T09:38:44;1.95;;;0.80;;
70216;SDS011;57608;0.000;0.000;2022-11-14T09:41:26;2.60;;;0.98;;
70216;SDS011;57608;0.000;0.000;2022-11-14T09:44:12;2.63;;;0.90;;
70216;SDS011;57608;0.000;0.000;2022-11-14T09:46:43;4.63;;;0.98;;
70216;SDS011;57608;0.000;0.000;2022-11-14T09:49:23;7.05;;;1.13;;
70216;SDS011;57608;0.000;0.000;2022-11-14T09:54:57;3.17;;;1.02;;
70216;SDS011;57608;0.000;0.000;2022-11-14T09:57:26;3.80;;;1.23;;
70216;SDS011;57608;0.000;0.000;2022-11-14T09:59:52;15.02;;;12.77;;
70216;SDS011;57608;0.000;0.000;2022-11-14T10:16:14;8.50;;;3.40;;
70216;SDS011;57608;0.000;0.000;2022-11-14T10:30:42;6.10;;;2.15;;
70216;SDS011;57608;0.000;0.000;2022-11-14T10:38:31;5.20;;;1.63;;
70216;SDS011;57608;0.000;0.000;2022-11-14T10:41:06;4.03;;;1.20;;
70216;SDS011;57608;0.000;0.000;2022-11-14T10:43:45;4.13;;;1.30;;
70216;SDS011;57608;0.000;0.000;2022-11-14T10:46:16;3.15;;;1.10;;
70216;SDS011;57608;0.000;0.000;2022-11-14T10:48:43;2.90;;;1.23;;
70216;SDS011;57608;0.000;0.000;2022-11-14T10:56:45;15.43;;;6.95;;
70216;SDS011;57608;0.000;0.000;2022-11-14T10:59:11;54.78;;;28.02;;
70216;SDS011;57608;0.000;0.000;2022-11-14T11:06:42;53.22;;;26.02;;
70216;SDS011;57608;0.000;0.000;2022-11-14T11:09:11;52.92;;;24.88;;
70216;SDS011;57608;0.000;0.000;2022-11-14T11:11:59;45.85;;;22.98;;
70216;SDS011;57608;0.000;0.000;2022-11-14T11:14:25;45.30;;;22.63;;
70216;SDS011;57608;0.000;0.000;2022-11-14T11:17:14;42.90;;;20.88;;
70216;SDS011;57608;0.000;0.000;2022-11-14T11:19:43;44.42;;;20.15;;
70216;SDS011;57608;0.000;0.000;2022-11-14T11:25:00;41.47;;;19.65;;
70216;SDS011;57608;0.000;0.000;2022-11-14T11:27:27;40.15;;;19.27;;
70216;SDS011;57608;0.000;0.000;2022-11-14T11:30:05;37.72;;;18.27;;
70216;SDS011;57608;0.000;0.000;2022-11-14T11:32:33;35.92;;;17.58;;
70216;SDS011;57608;0.000;0.000;2022-11-14T11:34:59;33.83;;;16.80;;
70216;SDS011;57608;0.000;0.000;2022-11-14T11:40:26;31.98;;;16.27;;
70216;SDS011;57608;0.000;0.000;2022-11-14T11:43:00;30.92;;;14.50;;
70216;SDS011;57608;0.000;0.000;2022-11-14T11:45:29;32.33;;;14.85;;
70216;SDS011;57608;0.000;0.000;2022-11-14T11:47:57;30.33;;;14.27;;
70216;SDS011;57608;0.000;0.000;2022-11-14T11:50:38;29.88;;;14.90;;
70216;SDS011;57608;0.000;0.000;2022-11-14T11:53:06;27.75;;;13.30;;
70216;SDS011;57608;0.000;0.000;2022-11-14T11:55:57;25.35;;;13.20;;
70216;SDS011;57608;0.000;0.000;2022-11-14T11:58:26;26.92;;;13.15;;
70216;SDS011;57608;0.000;0.000;2022-11-14T12:00:52;27.92;;;12.98;;
70216;SDS011;57608;0.000;0.000;2022-11-14T12:03:22;22.75;;;12.25;;
70216;SDS011;57608;0.000;0.000;2022-11-14T12:06:06;23.40;;;12.00;;
70216;SDS011;57608;0.000;0.000;2022-11-14T12:09:00;24.38;;;11.32;;
70216;SDS011;57608;0.000;0.000;2022-11-14T12:11:36;22.35;;;10.77;;
70216;SDS011;57608;0.000;0.000;2022-11-14T12:31:11;16.02;;;8.75;;
70216;SDS011;57608;0.000;0.000;2022-11-14T12:33:56;17.95;;;8.70;;
70216;SDS011;57608;0.000;0.000;2022-11-14T12:36:31;16.83;;;8.18;;
70216;SDS011;57608;0.000;0.000;2022-11-14T12:38:58;17.90;;;8.27;;
70216;SDS011;57608;0.000;0.000;2022-11-14T12:41:27;14.40;;;7.05;;
70216;SDS011;57608;0.000;0.000;2022-11-14T13:00:30;10.93;;;5.72;;
70216;SDS011;57608;0.000;0.000;2022-11-14T13:03:13;10.27;;;5.32;;
70216;SDS011;57608;0.000;0.000;2022-11-14T13:14:14;10.65;;;4.65;;
70216;SDS011;57608;0.000;0.000;2022-11-14T13:19:56;8.20;;;4.30;;
70216;SDS011;57608;0.000;0.000;2022-11-14T13:22:41;12.70;;;4.30;;
70216;SDS011;57608;0.000;0.000;2022-11-14T13:25:15;14.80;;;4.22;;
70216;SDS011;57608;0.000;0.000;2022-11-14T13:27:43;26.73;;;4.05;;
70216;SDS011;57608;0.000;0.000;2022-11-14T13:30:08;15.88;;;3.40;;
70216;SDS011;57608;0.000;0.000;2022-11-14T13:41:07;7.80;;;3.20;;
70216;SDS011;57608;0.000;0.000;2022-11-14T13:51:59;10.40;;;2.55;;
70216;SDS011;57608;0.000;0.000;2022-11-14T13:54:25;6.28;;;2.45;;
70216;SDS011;57608;0.000;0.000;2022-11-14T14:08:18;9.65;;;1.77;;
70216;SDS011;57608;0.000;0.000;2022-11-14T14:13:45;4.03;;;1.52;;
70216;SDS011;57608;0.000;0.000;2022-11-14T14:16:35;4.50;;;1.65;;
70216;SDS011;57608;0.000;0.000;2022-11-14T14:22:08;5.20;;;1.88;;
70216;SDS011;57608;0.000;0.000;2022-11-14T14:29:40;5.13;;;1.33;;
70216;SDS011;57608;0.000;0.000;2022-11-14T14:32:13;4.15;;;1.40;;
70216;SDS011;57608;0.000;0.000;2022-11-14T14:34:40;3.53;;;1.30;;
70216;SDS011;57608;0.000;0.000;2022-11-14T14:37:20;5.95;;;1.55;;
70216;SDS011;57608;0.000;0.000;2022-11-14T14:42:53;4.18;;;1.35;;
70216;SDS011;57608;0.000;0.000;2022-11-14T14:45:21;5.10;;;1.20;;
70216;SDS011;57608;0.000;0.000;2022-11-14T14:47:49;5.35;;;1.40;;
70216;SDS011;57608;0.000;0.000;2022-11-14T14:50:24;3.50;;;1.38;;
70216;SDS011;57608;0.000;0.000;2022-11-14T14:55:32;6.93;;;1.30;;
70216;SDS011;57608;0.000;0.000;2022-11-14T14:58:20;6.45;;;1.10;;
70216;SDS011;57608;0.000;0.000;2022-11-14T15:00:49;4.65;;;1.42;;
70216;SDS011;57608;0.000;0.000;2022-11-14T15:03:44;3.47;;;1.42;;
70216;SDS011;57608;0.000;0.000;2022-11-14T15:06:28;4.95;;;1.20;;
70216;SDS011;57608;0.000;0.000;2022-11-14T15:09:02;3.90;;;1.15;;
70216;SDS011;57608;0.000;0.000;2022-11-14T15:11:32;3.95;;;1.42;;
70216;SDS011;57608;0.000;0.000;2022-11-14T15:13:58;3.33;;;1.05;;
70216;SDS011;57608;0.000;0.000;2022-11-14T15:16:26;3.78;;;1.30;;
70216;SDS011;57608;0.000;0.000;2022-11-14T15:18:53;5.78;;;1.40;;
70216;SDS011;57608;0.000;0.000;2022-11-14T15:26:35;3.88;;;1.33;;
70216;SDS011;57608;0.000;0.000;2022-11-14T15:29:20;3.35;;;1.08;;
70216;SDS011;57608;0.000;0.000;2022-11-14T15:31:57;3.38;;;1.05;;
70216;SDS011;57608;0.000;0.000;2022-11-14T15:34:28;4.78;;;1.20;;
70216;SDS011;57608;0.000;0.000;2022-11-14T15:37:05;5.85;;;1.13;;
70216;SDS011;57608;0.000;0.000;2022-11-14T15:39:31;4.35;;;1.55;;
70216;SDS011;57608;0.000;0.000;2022-11-14T15:42:39;5.72;;;1.25;;
70216;SDS011;57608;0.000;0.000;2022-11-14T15:44:48;3.30;;;1.10;;
70216;SDS011;57608;0.000;0.000;2022-11-14T15:47:22;3.20;;;1.10;;
70216;SDS011;57608;0.000;0.000;2022-11-14T15:49:56;4.57;;;1.05;;
70216;SDS011;57608;0.000;0.000;2022-11-14T15:52:33;3.78;;;1.20;;
70216;SDS011;57608;0.000;0.000;2022-11-14T15:55:02;5.38;;;1.48;;
70216;SDS011;57608;0.000;0.000;2022-11-14T15:57:29;4.82;;;1.60;;
70216;SDS011;57608;0.000;0.000;2022-11-14T15:59:56;3.85;;;1.02;;
70216;SDS011;57608;0.000;0.000;2022-11-14T16:02:22;5.00;;;1.13;;
70216;SDS011;57608;0.000;0.000;2022-11-14T16:04:55;3.45;;;1.05;;
70216;SDS011;57608;0.000;0.000;2022-11-14T16:07:22;4.95;;;1.42;;
70216;SDS011;57608;0.000;0.000;2022-11-14T16:09:47;3.67;;;1.33;;
70216;SDS011;57608;0.000;0.000;2022-11-14T16:12:13;6.47;;;1.27;;
70216;SDS011;57608;0.000;0.000;2022-11-14T16:14:39;4.60;;;1.20;;
70216;SDS011;57608;0.000;0.000;2022-11-14T16:17:05;3.60;;;1.15;;
70216;SDS011;57608;0.000;0.000;2022-11-14T16:19:35;3.72;;;1.10;;
70216;SDS011;57608;0.000;0.000;2022-11-14T16:22:00;4.75;;;1.20;;
70216;SDS011;57608;0.000;0.000;2022-11-14T16:24:27;3.95;;;1.10;;
70216;SDS011;57608;0.000;0.000;2022-11-14T16:26:53;4.63;;;1.10;;
70216;SDS011;57608;0.000;0.000;2022-11-14T16:29:18;4.50;;;1.02;;
70216;SDS011;57608;0.000;0.000;2022-11-14T16:31:44;2.15;;;0.80;;
70216;SDS011;57608;0.000;0.000;2022-11-14T16:34:13;4.97;;;1.00;;
70216;SDS011;57608;0.000;0.000;2022-11-14T16:36:42;3.85;;;1.00;;
70216;SDS011;57608;0.000;0.000;2022-11-14T16:39:10;6.38;;;1.00;;
70216;SDS011;57608;0.000;0.000;2022-11-14T16:41:38;3.85;;;0.80;;
70216;SDS011;57608;0.000;0.000;2022-11-14T16:44:04;4.88;;;0.90;;
70216;SDS011;57608;0.000;0.000;2022-11-14T16:46:30;4.18;;;0.82;;
70216;SDS011;57608;0.000;0.000;2022-11-14T16:48:55;4.47;;;0.75;;
70216;SDS011;57608;0.000;0.000;2022-11-14T16:51:21;2.85;;;0.82;;
70216;SDS011;57608;0.000;0.000;2022-11-14T16:53:46;3.33;;;0.98;;
70216;SDS011;57608;0.000;0.000;2022-11-14T16:56:12;1.83;;;0.90;;
70216;SDS011;57608;0.000;0.000;2022-11-14T16:58:38;2.67;;;1.00;;
70216;SDS011;57608;0.000;0.000;2022-11-14T17:01:06;2.90;;;0.90;;
70216;SDS011;57608;0.000;0.000;2022-11-14T17:03:32;3.80;;;1.25;;
70216;SDS011;57608;0.000;0.000;2022-11-14T17:05:58;3.47;;;1.40;;
70216;SDS011;57608;0.000;0.000;2022-11-14T17:08:23;4.88;;;1.15;;
70216;SDS011;57608;0.000;0.000;2022-11-14T17:10:49;2.83;;;1.27;;
70216;SDS011;57608;0.000;0.000;2022-11-14T17:13:14;6.25;;;1.15;;
70216;SDS011;57608;0.000;0.000;2022-11-14T17:15:43;1.80;;;0.65;;
70216;SDS011;57608;0.000;0.000;2022-11-14T17:18:08;3.33;;;0.93;;
70216;SDS011;57608;0.000;0.000;2022-11-14T17:20:37;5.45;;;1.00;;
70216;SDS011;57608;0.000;0.000;2022-11-14T17:23:02;3.78;;;0.90;;
70216;SDS011;57608;0.000;0.000;2022-11-14T17:25:28;2.50;;;0.88;;
70216;SDS011;57608;0.000;0.000;2022-11-14T17:27:54;4.07;;;0.90;;
70216;SDS011;57608;0.000;0.000;2022-11-14T17:30:20;3.53;;;0.98;;